sensor_id;sensor_type;location;lat;lon;timestamp;P1;durP1;ratioP1;P2;durP2;ratioP2
16440;SDS011;8330;-33.858;151.184;2023-02-28T00:02:13;7.00;;;2.63;;
16440;SDS011;8330;-33.858;151.184;2023-02-28T00:04:44;6.28;;;2.70;;
16440;SDS011;8330;-33.858;151.184;2023-02-28T00:07:19;6.75;;;3.13;;
16440;SDS011;8330;-33.858;151.184;2023-02-28T00:09:50;5.63;;;3.00;;
16440;SDS011;8330;-33.858;151.184;2023-02-28T00:12:21;5.45;;;2.60;;
16440;SDS011;8330;-33.858;151.184;2023-02-28T00:14:54;4.95;;;1.90;;
16440;SDS011;8330;-33.858;151.184;2023-02-28T00:17:25;6.47;;;1.70;;
16440;SDS011;8330;-33.858;151.184;2023-02-28T00:19:56;4.88;;;1.50;;
16440;SDS011;8330;-33.858;151.184;2023-02-28T00:22:36;6.45;;;1.80;;
16440;SDS011;8330;-33.858;151.184;2023-02-28T00:25:08;9.35;;;4.22;;
16440;SDS011;8330;-33.858;151.184;2023-02-28T00:27:40;8.15;;;2.83;;
16440;SDS011;8330;-33.858;151.184;2023-02-28T00:30:15;4.45;;;2.30;;
16440;SDS011;8330;-33.858;151.184;2023-02-28T00:32:47;5.00;;;2.47;;
16440;SDS011;8330;-33.858;151.184;2023-02-28T00:35:19;4.65;;;2.17;;
16440;SDS011;8330;-33.858;151.184;2023-02-28T00:37:50;4.95;;;1.60;;
16440;SDS011;8330;-33.858;151.184;2023-02-28T00:40:21;3.33;;;1.25;;
16440;SDS011;8330;-33.858;151.184;2023-02-28T00:42:52;4.32;;;1.10;;
16440;SDS011;8330;-33.858;151.184;2023-02-28T00:45:25;4.30;;;0.90;;
16440;SDS011;8330;-33.858;151.184;2023-02-28T00:47:56;4.57;;;1.08;;
16440;SDS011;8330;-33.858;151.184;2023-02-28T00:50:28;4.13;;;0.90;;
16440;SDS011;8330;-33.858;151.184;2023-02-28T00:52:59;4.60;;;1.00;;
16440;SDS011;8330;-33.858;151.184;2023-02-28T00:55:30;4.32;;;1.08;;
16440;SDS011;8330;-33.858;151.184;2023-02-28T00:58:01;7.75;;;1.30;;
16440;SDS011;8330;-33.858;151.184;2023-02-28T01:00:34;2.55;;;0.90;;
16440;SDS011;8330;-33.858;151.184;2023-02-28T01:03:05;7.38;;;1.10;;
16440;SDS011;8330;-33.858;151.184;2023-02-28T01:05:39;5.90;;;1.10;;
16440;SDS011;8330;-33.858;151.184;2023-02-28T01:08:10;2.60;;;0.85;;
16440;SDS011;8330;-33.858;151.184;2023-02-28T01:10:42;3.33;;;0.98;;
16440;SDS011;8330;-33.858;151.184;2023-02-28T01:13:13;2.88;;;0.88;;
16440;SDS011;8330;-33.858;151.184;2023-02-28T01:15:49;2.75;;;1.00;;
16440;SDS011;8330;-33.858;151.184;2023-02-28T01:18:21;2.83;;;0.93;;
16440;SDS011;8330;-33.858;151.184;2023-02-28T01:20:52;4.28;;;1.00;;
16440;SDS011;8330;-33.858;151.184;2023-02-28T01:23:25;6.03;;;1.38;;
16440;SDS011;8330;-33.858;151.184;2023-02-28T01:25:56;4.18;;;1.20;;
16440;SDS011;8330;-33.858;151.184;2023-02-28T01:28:32;3.35;;;1.05;;
16440;SDS011;8330;-33.858;151.184;2023-02-28T01:31:06;3.90;;;1.20;;
16440;SDS011;8330;-33.858;151.184;2023-02-28T01:33:38;3.15;;;0.80;;
16440;SDS011;8330;-33.858;151.184;2023-02-28T01:36:12;2.92;;;0.85;;
16440;SDS011;8330;-33.858;151.184;2023-02-28T01:38:45;5.15;;;1.10;;
16440;SDS011;8330;-33.858;151.184;2023-02-28T01:41:17;5.60;;;0.98;;
16440;SDS011;8330;-33.858;151.184;2023-02-28T01:43:56;4.35;;;1.20;;
16440;SDS011;8330;-33.858;151.184;2023-02-28T01:46:33;3.58;;;0.90;;
16440;SDS011;8330;-33.858;151.184;2023-02-28T01:49:06;4.22;;;1.20;;
16440;SDS011;8330;-33.858;151.184;2023-02-28T01:51:40;3.80;;;0.80;;
16440;SDS011;8330;-33.858;151.184;2023-02-28T01:54:16;3.78;;;0.93;;
16440;SDS011;8330;-33.858;151.184;2023-02-28T01:56:51;3.63;;;1.10;;
16440;SDS011;8330;-33.858;151.184;2023-02-28T01:59:26;6.82;;;1.30;;
16440;SDS011;8330;-33.858;151.184;2023-02-28T02:02:04;4.82;;;1.20;;
16440;SDS011;8330;-33.858;151.184;2023-02-28T02:04:36;4.97;;;1.92;;
16440;SDS011;8330;-33.858;151.184;2023-02-28T02:07:10;5.03;;;1.77;;
16440;SDS011;8330;-33.858;151.184;2023-02-28T02:09:43;7.57;;;2.20;;
16440;SDS011;8330;-33.858;151.184;2023-02-28T02:12:16;4.20;;;1.40;;
16440;SDS011;8330;-33.858;151.184;2023-02-28T02:14:59;5.47;;;1.60;;
16440;SDS011;8330;-33.858;151.184;2023-02-28T02:17:38;6.75;;;2.20;;
16440;SDS011;8330;-33.858;151.184;2023-02-28T02:20:23;6.05;;;2.40;;
16440;SDS011;8330;-33.858;151.184;2023-02-28T02:23:29;6.43;;;2.42;;
16440;SDS011;8330;-33.858;151.184;2023-02-28T02:29:19;5.13;;;1.77;;
16440;SDS011;8330;-33.858;151.184;2023-02-28T02:35:10;3.50;;;1.10;;
16440;SDS011;8330;-33.858;151.184;2023-02-28T02:37:46;4.82;;;1.10;;
16440;SDS011;8330;-33.858;151.184;2023-02-28T02:40:21;3.03;;;0.85;;
16440;SDS011;8330;-33.858;151.184;2023-02-28T02:42:58;5.55;;;1.23;;
16440;SDS011;8330;-33.858;151.184;2023-02-28T02:45:34;5.00;;;1.20;;
16440;SDS011;8330;-33.858;151.184;2023-02-28T02:48:10;4.20;;;1.10;;
16440;SDS011;8330;-33.858;151.184;2023-02-28T02:50:48;3.55;;;0.90;;
16440;SDS011;8330;-33.858;151.184;2023-02-28T02:53:24;6.55;;;1.20;;
16440;SDS011;8330;-33.858;151.184;2023-02-28T02:55:59;5.43;;;1.23;;
16440;SDS011;8330;-33.858;151.184;2023-02-28T02:58:32;6.28;;;1.50;;
16440;SDS011;8330;-33.858;151.184;2023-02-28T03:01:08;4.32;;;0.88;;
16440;SDS011;8330;-33.858;151.184;2023-02-28T03:03:43;6.15;;;1.10;;
16440;SDS011;8330;-33.858;151.184;2023-02-28T03:06:17;4.32;;;0.95;;
16440;SDS011;8330;-33.858;151.184;2023-02-28T03:08:48;4.68;;;1.25;;
16440;SDS011;8330;-33.858;151.184;2023-02-28T03:11:20;5.07;;;1.13;;
16440;SDS011;8330;-33.858;151.184;2023-02-28T03:14:04;5.28;;;1.10;;
16440;SDS011;8330;-33.858;151.184;2023-02-28T03:19:52;2.92;;;1.15;;
16440;SDS011;8330;-33.858;151.184;2023-02-28T03:22:37;3.85;;;0.98;;
16440;SDS011;8330;-33.858;151.184;2023-02-28T03:25:22;5.07;;;1.27;;
16440;SDS011;8330;-33.858;151.184;2023-02-28T03:28:03;3.50;;;0.90;;
16440;SDS011;8330;-33.858;151.184;2023-02-28T03:30:41;2.55;;;0.82;;
16440;SDS011;8330;-33.858;151.184;2023-02-28T03:33:18;2.67;;;1.00;;
16440;SDS011;8330;-33.858;151.184;2023-02-28T03:35:53;5.63;;;1.02;;
16440;SDS011;8330;-33.858;151.184;2023-02-28T03:38:29;4.35;;;0.90;;
16440;SDS011;8330;-33.858;151.184;2023-02-28T03:41:08;4.30;;;1.13;;
16440;SDS011;8330;-33.858;151.184;2023-02-28T03:43:45;3.00;;;1.13;;
16440;SDS011;8330;-33.858;151.184;2023-02-28T03:46:21;3.30;;;1.00;;
16440;SDS011;8330;-33.858;151.184;2023-02-28T03:48:56;5.13;;;0.90;;
16440;SDS011;8330;-33.858;151.184;2023-02-28T03:51:31;4.15;;;1.10;;
16440;SDS011;8330;-33.858;151.184;2023-02-28T03:54:08;6.82;;;1.02;;
16440;SDS011;8330;-33.858;151.184;2023-02-28T03:56:43;2.47;;;1.00;;
16440;SDS011;8330;-33.858;151.184;2023-02-28T03:59:19;3.08;;;0.85;;
16440;SDS011;8330;-33.858;151.184;2023-02-28T04:01:55;3.15;;;1.13;;
16440;SDS011;8330;-33.858;151.184;2023-02-28T04:04:28;4.53;;;0.80;;
16440;SDS011;8330;-33.858;151.184;2023-02-28T04:07:02;2.67;;;0.60;;
16440;SDS011;8330;-33.858;151.184;2023-02-28T04:09:37;2.58;;;0.75;;
16440;SDS011;8330;-33.858;151.184;2023-02-28T04:12:08;4.50;;;0.85;;
16440;SDS011;8330;-33.858;151.184;2023-02-28T04:14:39;3.75;;;0.90;;
16440;SDS011;8330;-33.858;151.184;2023-02-28T04:17:13;6.28;;;0.85;;
16440;SDS011;8330;-33.858;151.184;2023-02-28T04:19:44;3.90;;;0.93;;
16440;SDS011;8330;-33.858;151.184;2023-02-28T04:22:16;5.10;;;0.98;;
16440;SDS011;8330;-33.858;151.184;2023-02-28T04:24:49;2.60;;;0.70;;
16440;SDS011;8330;-33.858;151.184;2023-02-28T04:27:20;2.53;;;0.60;;
16440;SDS011;8330;-33.858;151.184;2023-02-28T04:29:52;5.63;;;0.85;;
16440;SDS011;8330;-33.858;151.184;2023-02-28T04:32:23;2.70;;;0.80;;
16440;SDS011;8330;-33.858;151.184;2023-02-28T04:34:54;6.43;;;1.23;;
16440;SDS011;8330;-33.858;151.184;2023-02-28T04:37:26;3.80;;;0.80;;
16440;SDS011;8330;-33.858;151.184;2023-02-28T04:40:03;3.38;;;0.80;;
16440;SDS011;8330;-33.858;151.184;2023-02-28T04:42:34;2.45;;;0.65;;
16440;SDS011;8330;-33.858;151.184;2023-02-28T04:45:06;4.05;;;0.80;;
16440;SDS011;8330;-33.858;151.184;2023-02-28T04:47:38;5.18;;;1.08;;
16440;SDS011;8330;-33.858;151.184;2023-02-28T04:50:09;3.55;;;0.85;;
16440;SDS011;8330;-33.858;151.184;2023-02-28T04:52:40;2.33;;;0.70;;
16440;SDS011;8330;-33.858;151.184;2023-02-28T04:55:13;3.75;;;0.70;;
16440;SDS011;8330;-33.858;151.184;2023-02-28T04:57:45;5.18;;;0.98;;
16440;SDS011;8330;-33.858;151.184;2023-02-28T05:00:16;3.72;;;0.90;;
16440;SDS011;8330;-33.858;151.184;2023-02-28T05:02:47;3.97;;;1.00;;
16440;SDS011;8330;-33.858;151.184;2023-02-28T05:05:18;3.42;;;0.88;;
16440;SDS011;8330;-33.858;151.184;2023-02-28T05:07:49;2.63;;;0.80;;
16440;SDS011;8330;-33.858;151.184;2023-02-28T05:10:23;3.47;;;0.75;;
16440;SDS011;8330;-33.858;151.184;2023-02-28T05:12:54;4.35;;;1.00;;
16440;SDS011;8330;-33.858;151.184;2023-02-28T05:15:25;3.72;;;1.00;;
16440;SDS011;8330;-33.858;151.184;2023-02-28T05:17:57;5.30;;;1.10;;
16440;SDS011;8330;-33.858;151.184;2023-02-28T05:20:28;3.03;;;0.93;;
16440;SDS011;8330;-33.858;151.184;2023-02-28T05:22:59;4.97;;;1.00;;
16440;SDS011;8330;-33.858;151.184;2023-02-28T05:25:33;2.83;;;0.90;;
16440;SDS011;8330;-33.858;151.184;2023-02-28T05:28:04;3.40;;;0.73;;
16440;SDS011;8330;-33.858;151.184;2023-02-28T05:30:36;3.00;;;1.00;;
16440;SDS011;8330;-33.858;151.184;2023-02-28T05:33:09;2.47;;;0.98;;
16440;SDS011;8330;-33.858;151.184;2023-02-28T05:35:41;2.45;;;0.98;;
16440;SDS011;8330;-33.858;151.184;2023-02-28T05:38:14;3.65;;;1.20;;
16440;SDS011;8330;-33.858;151.184;2023-02-28T05:40:48;4.50;;;1.10;;
16440;SDS011;8330;-33.858;151.184;2023-02-28T05:43:19;3.10;;;0.80;;
16440;SDS011;8330;-33.858;151.184;2023-02-28T05:45:50;5.43;;;1.27;;
16440;SDS011;8330;-33.858;151.184;2023-02-28T05:48:21;3.67;;;0.95;;
16440;SDS011;8330;-33.858;151.184;2023-02-28T05:50:52;5.38;;;1.35;;
16440;SDS011;8330;-33.858;151.184;2023-02-28T05:53:23;3.80;;;1.25;;
16440;SDS011;8330;-33.858;151.184;2023-02-28T05:55:57;4.22;;;1.20;;
16440;SDS011;8330;-33.858;151.184;2023-02-28T05:58:28;1.85;;;0.98;;
16440;SDS011;8330;-33.858;151.184;2023-02-28T06:00:59;3.67;;;1.05;;
16440;SDS011;8330;-33.858;151.184;2023-02-28T06:03:48;5.43;;;1.15;;
16440;SDS011;8330;-33.858;151.184;2023-02-28T06:06:20;2.95;;;1.17;;
16440;SDS011;8330;-33.858;151.184;2023-02-28T06:08:51;4.78;;;1.30;;
16440;SDS011;8330;-33.858;151.184;2023-02-28T06:11:24;3.70;;;0.90;;
16440;SDS011;8330;-33.858;151.184;2023-02-28T06:13:56;6.72;;;1.40;;
16440;SDS011;8330;-33.858;151.184;2023-02-28T06:16:28;4.40;;;1.30;;
16440;SDS011;8330;-33.858;151.184;2023-02-28T06:19:00;4.30;;;0.85;;
16440;SDS011;8330;-33.858;151.184;2023-02-28T06:21:32;5.13;;;1.40;;
16440;SDS011;8330;-33.858;151.184;2023-02-28T06:24:04;5.97;;;1.10;;
16440;SDS011;8330;-33.858;151.184;2023-02-28T06:26:38;3.15;;;1.00;;
16440;SDS011;8330;-33.858;151.184;2023-02-28T06:29:09;4.63;;;1.10;;
16440;SDS011;8330;-33.858;151.184;2023-02-28T06:31:44;5.55;;;1.15;;
16440;SDS011;8330;-33.858;151.184;2023-02-28T06:34:16;3.80;;;1.10;;
16440;SDS011;8330;-33.858;151.184;2023-02-28T06:36:50;8.27;;;1.40;;
16440;SDS011;8330;-33.858;151.184;2023-02-28T06:39:22;4.13;;;1.02;;
16440;SDS011;8330;-33.858;151.184;2023-02-28T06:41:55;4.57;;;1.08;;
16440;SDS011;8330;-33.858;151.184;2023-02-28T06:44:28;5.85;;;1.40;;
16440;SDS011;8330;-33.858;151.184;2023-02-28T06:47:01;5.57;;;1.30;;
16440;SDS011;8330;-33.858;151.184;2023-02-28T06:49:33;2.83;;;1.05;;
16440;SDS011;8330;-33.858;151.184;2023-02-28T06:52:05;4.60;;;1.30;;
16440;SDS011;8330;-33.858;151.184;2023-02-28T06:54:36;5.00;;;1.30;;
16440;SDS011;8330;-33.858;151.184;2023-02-28T06:57:09;5.10;;;1.02;;
16440;SDS011;8330;-33.858;151.184;2023-02-28T06:59:40;3.22;;;1.00;;
16440;SDS011;8330;-33.858;151.184;2023-02-28T07:02:11;5.55;;;1.15;;
16440;SDS011;8330;-33.858;151.184;2023-02-28T07:04:42;5.07;;;1.13;;
16440;SDS011;8330;-33.858;151.184;2023-02-28T07:07:13;4.03;;;1.17;;
16440;SDS011;8330;-33.858;151.184;2023-02-28T07:09:45;5.22;;;1.33;;
16440;SDS011;8330;-33.858;151.184;2023-02-28T07:12:18;4.07;;;1.30;;
16440;SDS011;8330;-33.858;151.184;2023-02-28T07:14:49;5.57;;;1.20;;
16440;SDS011;8330;-33.858;151.184;2023-02-28T07:17:22;3.03;;;0.90;;
16440;SDS011;8330;-33.858;151.184;2023-02-28T07:19:53;5.03;;;1.65;;
16440;SDS011;8330;-33.858;151.184;2023-02-28T07:22:24;6.25;;;1.40;;
16440;SDS011;8330;-33.858;151.184;2023-02-28T07:24:56;6.40;;;1.13;;
16440;SDS011;8330;-33.858;151.184;2023-02-28T07:27:29;5.40;;;1.20;;
16440;SDS011;8330;-33.858;151.184;2023-02-28T07:30:00;2.60;;;0.95;;
16440;SDS011;8330;-33.858;151.184;2023-02-28T07:32:31;4.22;;;1.30;;
16440;SDS011;8330;-33.858;151.184;2023-02-28T07:35:04;6.38;;;1.60;;
16440;SDS011;8330;-33.858;151.184;2023-02-28T07:37:35;4.68;;;1.27;;
16440;SDS011;8330;-33.858;151.184;2023-02-28T07:40:08;6.30;;;1.15;;
16440;SDS011;8330;-33.858;151.184;2023-02-28T07:42:42;4.35;;;1.20;;
16440;SDS011;8330;-33.858;151.184;2023-02-28T07:45:13;5.53;;;1.30;;
16440;SDS011;8330;-33.858;151.184;2023-02-28T07:47:45;4.13;;;1.45;;
16440;SDS011;8330;-33.858;151.184;2023-02-28T07:50:16;6.47;;;1.48;;
16440;SDS011;8330;-33.858;151.184;2023-02-28T07:52:48;5.63;;;1.55;;
16440;SDS011;8330;-33.858;151.184;2023-02-28T07:55:19;3.65;;;1.17;;
16440;SDS011;8330;-33.858;151.184;2023-02-28T07:57:52;4.40;;;1.35;;
16440;SDS011;8330;-33.858;151.184;2023-02-28T08:00:23;5.18;;;1.40;;
16440;SDS011;8330;-33.858;151.184;2023-02-28T08:02:55;5.38;;;1.35;;
16440;SDS011;8330;-33.858;151.184;2023-02-28T08:05:26;6.68;;;1.70;;
16440;SDS011;8330;-33.858;151.184;2023-02-28T08:07:57;5.25;;;1.60;;
16440;SDS011;8330;-33.858;151.184;2023-02-28T08:10:28;5.55;;;1.40;;
16440;SDS011;8330;-33.858;151.184;2023-02-28T08:13:01;6.35;;;1.50;;
16440;SDS011;8330;-33.858;151.184;2023-02-28T08:15:32;4.78;;;1.30;;
16440;SDS011;8330;-33.858;151.184;2023-02-28T08:18:04;5.90;;;1.50;;
16440;SDS011;8330;-33.858;151.184;2023-02-28T08:20:35;5.53;;;1.73;;
16440;SDS011;8330;-33.858;151.184;2023-02-28T08:23:08;7.80;;;1.70;;
16440;SDS011;8330;-33.858;151.184;2023-02-28T08:25:39;4.25;;;1.20;;
16440;SDS011;8330;-33.858;151.184;2023-02-28T08:28:12;6.97;;;1.35;;
16440;SDS011;8330;-33.858;151.184;2023-02-28T08:30:43;5.25;;;1.48;;
16440;SDS011;8330;-33.858;151.184;2023-02-28T08:33:15;4.47;;;1.45;;
16440;SDS011;8330;-33.858;151.184;2023-02-28T08:35:46;6.22;;;1.70;;
16440;SDS011;8330;-33.858;151.184;2023-02-28T08:38:17;6.38;;;1.58;;
16440;SDS011;8330;-33.858;151.184;2023-02-28T08:40:48;6.20;;;1.52;;
16440;SDS011;8330;-33.858;151.184;2023-02-28T08:43:27;5.43;;;1.63;;
16440;SDS011;8330;-33.858;151.184;2023-02-28T08:45:59;3.33;;;1.48;;
16440;SDS011;8330;-33.858;151.184;2023-02-28T08:48:30;5.07;;;1.50;;
16440;SDS011;8330;-33.858;151.184;2023-02-28T08:51:04;4.32;;;1.35;;
16440;SDS011;8330;-33.858;151.184;2023-02-28T08:53:37;5.53;;;1.40;;
16440;SDS011;8330;-33.858;151.184;2023-02-28T08:56:09;3.78;;;1.30;;
16440;SDS011;8330;-33.858;151.184;2023-02-28T08:58:43;6.10;;;1.67;;
16440;SDS011;8330;-33.858;151.184;2023-02-28T09:01:15;4.32;;;1.70;;
16440;SDS011;8330;-33.858;151.184;2023-02-28T09:03:47;5.55;;;1.50;;
16440;SDS011;8330;-33.858;151.184;2023-02-28T09:06:19;5.18;;;1.60;;
16440;SDS011;8330;-33.858;151.184;2023-02-28T09:08:51;5.10;;;1.50;;
16440;SDS011;8330;-33.858;151.184;2023-02-28T09:11:25;5.82;;;2.03;;
16440;SDS011;8330;-33.858;151.184;2023-02-28T09:13:59;3.08;;;1.40;;
16440;SDS011;8330;-33.858;151.184;2023-02-28T09:16:31;6.30;;;2.00;;
16440;SDS011;8330;-33.858;151.184;2023-02-28T09:19:03;6.70;;;1.65;;
16440;SDS011;8330;-33.858;151.184;2023-02-28T09:21:34;7.97;;;1.80;;
16440;SDS011;8330;-33.858;151.184;2023-02-28T09:24:07;4.32;;;1.58;;
16440;SDS011;8330;-33.858;151.184;2023-02-28T09:26:40;5.85;;;1.50;;
16440;SDS011;8330;-33.858;151.184;2023-02-28T09:29:13;6.55;;;1.90;;
16440;SDS011;8330;-33.858;151.184;2023-02-28T09:31:44;6.38;;;2.00;;
16440;SDS011;8330;-33.858;151.184;2023-02-28T09:34:15;6.38;;;2.00;;
16440;SDS011;8330;-33.858;151.184;2023-02-28T09:36:46;6.28;;;1.77;;
16440;SDS011;8330;-33.858;151.184;2023-02-28T09:39:21;4.78;;;1.65;;
16440;SDS011;8330;-33.858;151.184;2023-02-28T09:42:28;4.38;;;1.50;;
16440;SDS011;8330;-33.858;151.184;2023-02-28T09:45:05;5.95;;;1.73;;
16440;SDS011;8330;-33.858;151.184;2023-02-28T09:47:43;5.35;;;1.92;;
16440;SDS011;8330;-33.858;151.184;2023-02-28T09:50:18;5.35;;;1.83;;
16440;SDS011;8330;-33.858;151.184;2023-02-28T09:52:59;6.97;;;1.90;;
16440;SDS011;8330;-33.858;151.184;2023-02-28T09:55:36;5.25;;;1.77;;
16440;SDS011;8330;-33.858;151.184;2023-02-28T09:58:11;5.22;;;1.80;;
16440;SDS011;8330;-33.858;151.184;2023-02-28T10:00:54;8.13;;;1.90;;
16440;SDS011;8330;-33.858;151.184;2023-02-28T10:03:30;4.10;;;1.67;;
16440;SDS011;8330;-33.858;151.184;2023-02-28T10:06:07;7.00;;;1.90;;
16440;SDS011;8330;-33.858;151.184;2023-02-28T10:08:45;4.68;;;2.13;;
16440;SDS011;8330;-33.858;151.184;2023-02-28T10:11:21;6.82;;;2.10;;
16440;SDS011;8330;-33.858;151.184;2023-02-28T10:14:01;5.35;;;1.70;;
16440;SDS011;8330;-33.858;151.184;2023-02-28T10:16:38;6.65;;;2.20;;
16440;SDS011;8330;-33.858;151.184;2023-02-28T10:19:14;4.88;;;1.85;;
16440;SDS011;8330;-33.858;151.184;2023-02-28T10:21:49;5.72;;;1.88;;
16440;SDS011;8330;-33.858;151.184;2023-02-28T10:24:27;6.75;;;1.95;;
16440;SDS011;8330;-33.858;151.184;2023-02-28T10:27:06;4.40;;;1.65;;
16440;SDS011;8330;-33.858;151.184;2023-02-28T10:29:45;4.38;;;1.70;;
16440;SDS011;8330;-33.858;151.184;2023-02-28T10:32:21;5.88;;;1.80;;
16440;SDS011;8330;-33.858;151.184;2023-02-28T10:34:55;5.35;;;1.80;;
16440;SDS011;8330;-33.858;151.184;2023-02-28T10:37:29;6.07;;;1.90;;
16440;SDS011;8330;-33.858;151.184;2023-02-28T10:40:05;5.95;;;1.95;;
16440;SDS011;8330;-33.858;151.184;2023-02-28T10:42:57;6.20;;;1.67;;
16440;SDS011;8330;-33.858;151.184;2023-02-28T10:45:29;5.30;;;1.80;;
16440;SDS011;8330;-33.858;151.184;2023-02-28T10:48:05;6.55;;;1.88;;
16440;SDS011;8330;-33.858;151.184;2023-02-28T10:50:55;7.60;;;1.88;;
16440;SDS011;8330;-33.858;151.184;2023-02-28T10:56:19;9.05;;;2.15;;
16440;SDS011;8330;-33.858;151.184;2023-02-28T10:58:53;4.82;;;1.70;;
16440;SDS011;8330;-33.858;151.184;2023-02-28T11:01:33;5.03;;;1.80;;
16440;SDS011;8330;-33.858;151.184;2023-02-28T11:04:18;7.55;;;2.30;;
16440;SDS011;8330;-33.858;151.184;2023-02-28T11:07:03;4.45;;;2.10;;
16440;SDS011;8330;-33.858;151.184;2023-02-28T11:09:36;6.43;;;2.00;;
16440;SDS011;8330;-33.858;151.184;2023-02-28T11:12:19;8.13;;;2.05;;
16440;SDS011;8330;-33.858;151.184;2023-02-28T11:14:52;6.13;;;2.13;;
16440;SDS011;8330;-33.858;151.184;2023-02-28T11:17:25;6.95;;;2.17;;
16440;SDS011;8330;-33.858;151.184;2023-02-28T11:20:00;4.93;;;1.90;;
16440;SDS011;8330;-33.858;151.184;2023-02-28T11:22:35;5.53;;;1.80;;
16440;SDS011;8330;-33.858;151.184;2023-02-28T11:25:16;5.07;;;1.85;;
16440;SDS011;8330;-33.858;151.184;2023-02-28T11:27:51;7.07;;;2.30;;
16440;SDS011;8330;-33.858;151.184;2023-02-28T11:30:27;6.43;;;1.98;;
16440;SDS011;8330;-33.858;151.184;2023-02-28T11:36:00;7.05;;;2.10;;
16440;SDS011;8330;-33.858;151.184;2023-02-28T11:38:33;5.35;;;2.00;;
16440;SDS011;8330;-33.858;151.184;2023-02-28T11:41:10;5.45;;;1.95;;
16440;SDS011;8330;-33.858;151.184;2023-02-28T11:44:08;5.88;;;2.17;;
16440;SDS011;8330;-33.858;151.184;2023-02-28T11:46:50;5.00;;;1.98;;
16440;SDS011;8330;-33.858;151.184;2023-02-28T11:49:28;6.40;;;2.20;;
16440;SDS011;8330;-33.858;151.184;2023-02-28T11:52:12;7.50;;;2.05;;
16440;SDS011;8330;-33.858;151.184;2023-02-28T11:54:59;5.05;;;1.80;;
16440;SDS011;8330;-33.858;151.184;2023-02-28T11:57:52;4.30;;;1.67;;
16440;SDS011;8330;-33.858;151.184;2023-02-28T12:00:40;10.02;;;2.25;;
16440;SDS011;8330;-33.858;151.184;2023-02-28T12:03:27;6.15;;;1.95;;
16440;SDS011;8330;-33.858;151.184;2023-02-28T12:06:12;4.35;;;1.95;;
16440;SDS011;8330;-33.858;151.184;2023-02-28T12:08:56;6.70;;;2.13;;
16440;SDS011;8330;-33.858;151.184;2023-02-28T12:11:43;6.40;;;2.03;;
16440;SDS011;8330;-33.858;151.184;2023-02-28T12:14:32;7.20;;;1.92;;
16440;SDS011;8330;-33.858;151.184;2023-02-28T12:17:22;8.07;;;2.47;;
16440;SDS011;8330;-33.858;151.184;2023-02-28T12:20:13;6.88;;;2.20;;
16440;SDS011;8330;-33.858;151.184;2023-02-28T12:22:57;5.35;;;2.10;;
16440;SDS011;8330;-33.858;151.184;2023-02-28T12:25:47;4.85;;;1.98;;
16440;SDS011;8330;-33.858;151.184;2023-02-28T12:28:25;5.72;;;1.80;;
16440;SDS011;8330;-33.858;151.184;2023-02-28T12:31:04;5.00;;;1.88;;
16440;SDS011;8330;-33.858;151.184;2023-02-28T12:33:39;8.30;;;2.40;;
16440;SDS011;8330;-33.858;151.184;2023-02-28T12:36:15;5.10;;;2.22;;
16440;SDS011;8330;-33.858;151.184;2023-02-28T12:38:51;7.40;;;2.30;;
16440;SDS011;8330;-33.858;151.184;2023-02-28T12:41:33;8.20;;;2.40;;
16440;SDS011;8330;-33.858;151.184;2023-02-28T12:44:11;5.20;;;2.10;;
16440;SDS011;8330;-33.858;151.184;2023-02-28T12:46:46;9.65;;;2.47;;
16440;SDS011;8330;-33.858;151.184;2023-02-28T12:49:22;5.78;;;2.17;;
16440;SDS011;8330;-33.858;151.184;2023-02-28T12:51:58;5.93;;;2.40;;
16440;SDS011;8330;-33.858;151.184;2023-02-28T12:54:31;6.32;;;2.08;;
16440;SDS011;8330;-33.858;151.184;2023-02-28T12:57:11;4.93;;;2.10;;
16440;SDS011;8330;-33.858;151.184;2023-02-28T12:59:48;8.32;;;2.38;;
16440;SDS011;8330;-33.858;151.184;2023-02-28T13:05:52;8.07;;;2.22;;
16440;SDS011;8330;-33.858;151.184;2023-02-28T13:09:00;5.55;;;2.00;;
16440;SDS011;8330;-33.858;151.184;2023-02-28T13:11:39;6.45;;;2.20;;
16440;SDS011;8330;-33.858;151.184;2023-02-28T13:14:24;7.60;;;2.10;;
16440;SDS011;8330;-33.858;151.184;2023-02-28T13:17:02;4.90;;;2.00;;
16440;SDS011;8330;-33.858;151.184;2023-02-28T13:19:41;6.22;;;2.47;;
16440;SDS011;8330;-33.858;151.184;2023-02-28T13:22:18;6.22;;;2.40;;
16440;SDS011;8330;-33.858;151.184;2023-02-28T13:25:14;5.93;;;2.22;;
16440;SDS011;8330;-33.858;151.184;2023-02-28T13:34:46;5.88;;;2.20;;
16440;SDS011;8330;-33.858;151.184;2023-02-28T13:37:35;4.88;;;2.10;;
16440;SDS011;8330;-33.858;151.184;2023-02-28T13:40:30;7.57;;;1.90;;
16440;SDS011;8330;-33.858;151.184;2023-02-28T13:43:05;6.72;;;2.30;;
16440;SDS011;8330;-33.858;151.184;2023-02-28T13:45:38;6.32;;;2.13;;
16440;SDS011;8330;-33.858;151.184;2023-02-28T13:48:29;5.13;;;2.00;;
16440;SDS011;8330;-33.858;151.184;2023-02-28T13:51:02;7.38;;;2.13;;
16440;SDS011;8330;-33.858;151.184;2023-02-28T13:54:15;7.28;;;2.28;;
16440;SDS011;8330;-33.858;151.184;2023-02-28T13:57:06;4.43;;;1.98;;
16440;SDS011;8330;-33.858;151.184;2023-02-28T14:00:05;5.53;;;2.20;;
16440;SDS011;8330;-33.858;151.184;2023-02-28T14:02:51;7.50;;;2.30;;
16440;SDS011;8330;-33.858;151.184;2023-02-28T14:05:45;8.68;;;2.58;;
16440;SDS011;8330;-33.858;151.184;2023-02-28T14:08:19;7.35;;;2.15;;
16440;SDS011;8330;-33.858;151.184;2023-02-28T14:11:02;5.43;;;2.15;;
16440;SDS011;8330;-33.858;151.184;2023-02-28T14:13:39;6.53;;;1.98;;
16440;SDS011;8330;-33.858;151.184;2023-02-28T14:16:13;6.53;;;2.22;;
16440;SDS011;8330;-33.858;151.184;2023-02-28T14:18:48;5.90;;;1.98;;
16440;SDS011;8330;-33.858;151.184;2023-02-28T14:21:25;6.60;;;2.35;;
16440;SDS011;8330;-33.858;151.184;2023-02-28T14:27:03;5.40;;;1.90;;
16440;SDS011;8330;-33.858;151.184;2023-02-28T14:30:03;7.05;;;2.08;;
16440;SDS011;8330;-33.858;151.184;2023-02-28T14:32:51;5.22;;;2.20;;
16440;SDS011;8330;-33.858;151.184;2023-02-28T14:35:39;7.72;;;2.45;;
16440;SDS011;8330;-33.858;151.184;2023-02-28T14:38:21;8.60;;;2.45;;
16440;SDS011;8330;-33.858;151.184;2023-02-28T14:40:58;5.82;;;2.13;;
16440;SDS011;8330;-33.858;151.184;2023-02-28T14:43:34;10.48;;;2.13;;
16440;SDS011;8330;-33.858;151.184;2023-02-28T14:46:05;6.03;;;2.17;;
16440;SDS011;8330;-33.858;151.184;2023-02-28T14:48:36;4.05;;;2.00;;
16440;SDS011;8330;-33.858;151.184;2023-02-28T14:54:30;6.53;;;2.40;;
16440;SDS011;8330;-33.858;151.184;2023-02-28T14:57:04;8.10;;;2.38;;
16440;SDS011;8330;-33.858;151.184;2023-02-28T14:59:35;5.60;;;2.15;;
16440;SDS011;8330;-33.858;151.184;2023-02-28T15:02:20;6.95;;;2.25;;
16440;SDS011;8330;-33.858;151.184;2023-02-28T15:04:55;7.53;;;2.38;;
16440;SDS011;8330;-33.858;151.184;2023-02-28T15:07:27;8.90;;;2.53;;
16440;SDS011;8330;-33.858;151.184;2023-02-28T15:13:11;6.80;;;2.08;;
16440;SDS011;8330;-33.858;151.184;2023-02-28T15:15:45;6.18;;;2.33;;
16440;SDS011;8330;-33.858;151.184;2023-02-28T15:18:25;6.30;;;2.17;;
16440;SDS011;8330;-33.858;151.184;2023-02-28T15:21:01;9.68;;;2.47;;
16440;SDS011;8330;-33.858;151.184;2023-02-28T15:23:34;7.10;;;2.22;;
16440;SDS011;8330;-33.858;151.184;2023-02-28T15:26:09;6.95;;;2.17;;
16440;SDS011;8330;-33.858;151.184;2023-02-28T15:28:45;5.65;;;2.00;;
16440;SDS011;8330;-33.858;151.184;2023-02-28T15:31:19;4.22;;;1.92;;
16440;SDS011;8330;-33.858;151.184;2023-02-28T15:33:55;8.80;;;2.20;;
16440;SDS011;8330;-33.858;151.184;2023-02-28T15:36:29;7.53;;;2.28;;
16440;SDS011;8330;-33.858;151.184;2023-02-28T15:39:03;5.97;;;2.20;;
16440;SDS011;8330;-33.858;151.184;2023-02-28T15:41:50;6.93;;;2.20;;
16440;SDS011;8330;-33.858;151.184;2023-02-28T15:44:27;7.88;;;2.25;;
16440;SDS011;8330;-33.858;151.184;2023-02-28T15:47:02;6.50;;;2.25;;